sensor_id;sensor_type;location;lat;lon;timestamp;pressure;altitude;pressure_sealevel;temperature;humidity
71666;BME280;59503;53.486;10.196;2023-05-19T00:01:15;102888.88;;;6.08;100.00
71666;BME280;59503;53.486;10.196;2023-05-19T00:03:51;102889.69;;;6.09;100.00
71666;BME280;59503;53.486;10.196;2023-05-19T00:06:22;102887.00;;;6.04;100.00
71666;BME280;59503;53.486;10.196;2023-05-19T00:08:48;102877.88;;;5.95;100.00
71666;BME280;59503;53.486;10.196;2023-05-19T00:11:14;102887.88;;;5.94;100.00
71666;BME280;59503;53.486;10.196;2023-05-19T00:13:39;102896.25;;;5.93;100.00
71666;BME280;59503;53.486;10.196;2023-05-19T00:16:05;102882.25;;;5.81;100.00
71666;BME280;59503;53.486;10.196;2023-05-19T00:18:31;102899.00;;;5.83;100.00
71666;BME280;59503;53.486;10.196;2023-05-19T00:20:57;102897.09;;;5.78;100.00
71666;BME280;59503;53.486;10.196;2023-05-19T00:23:23;102897.38;;;5.72;100.00
71666;BME280;59503;53.486;10.196;2023-05-19T00:25:48;102893.91;;;5.66;100.00
71666;BME280;59503;53.486;10.196;2023-05-19T00:28:13;102894.47;;;5.58;100.00
71666;BME280;59503;53.486;10.196;2023-05-19T00:30:39;102894.22;;;5.55;100.00
71666;BME280;59503;53.486;10.196;2023-05-19T00:33:04;102889.63;;;5.55;100.00
71666;BME280;59503;53.486;10.196;2023-05-19T00:35:30;102889.63;;;5.55;100.00
71666;BME280;59503;53.486;10.196;2023-05-19T00:37:55;102888.06;;;5.49;100.00
71666;BME280;59503;53.486;10.196;2023-05-19T00:40:22;102881.03;;;5.43;100.00
71666;BME280;59503;53.486;10.196;2023-05-19T00:42:48;102888.81;;;5.55;100.00
71666;BME280;59503;53.486;10.196;2023-05-19T00:45:13;102888.03;;;5.54;100.00
71666;BME280;59503;53.486;10.196;2023-05-19T00:47:39;102888.03;;;5.59;100.00
71666;BME280;59503;53.486;10.196;2023-05-19T00:50:04;102883.16;;;5.56;100.00
71666;BME280;59503;53.486;10.196;2023-05-19T00:52:30;102888.53;;;5.61;100.00
71666;BME280;59503;53.486;10.196;2023-05-19T00:54:55;102888.81;;;5.60;100.00
71666;BME280;59503;53.486;10.196;2023-05-19T00:57:21;102883.66;;;5.68;100.00
71666;BME280;59503;53.486;10.196;2023-05-19T00:59:47;102883.09;;;5.71;100.00
71666;BME280;59503;53.486;10.196;2023-05-19T01:02:13;102887.41;;;5.77;100.00
71666;BME280;59503;53.486;10.196;2023-05-19T01:04:39;102888.22;;;5.78;100.00
71666;BME280;59503;53.486;10.196;2023-05-19T01:07:06;102880.91;;;5.83;100.00
71666;BME280;59503;53.486;10.196;2023-05-19T01:09:31;102874.69;;;5.88;100.00
71666;BME280;59503;53.486;10.196;2023-05-19T01:11:58;102884.13;;;5.85;100.00
71666;BME280;59503;53.486;10.196;2023-05-19T01:14:23;102877.41;;;5.88;100.00
71666;BME280;59503;53.486;10.196;2023-05-19T01:17:08;102880.88;;;5.88;100.00
71666;BME280;59503;53.486;10.196;2023-05-19T01:28:19;102880.34;;;5.81;100.00
71666;BME280;59503;53.486;10.196;2023-05-19T01:30:54;102887.41;;;5.82;100.00
71666;BME280;59503;53.486;10.196;2023-05-19T01:33:21;102889.25;;;5.82;100.00
71666;BME280;59503;53.486;10.196;2023-05-19T01:35:48;102891.41;;;5.80;100.00
71666;BME280;59503;53.486;10.196;2023-05-19T01:38:16;102889.00;;;5.83;100.00
71666;BME280;59503;53.486;10.196;2023-05-19T01:40:43;102883.59;;;5.83;100.00
71666;BME280;59503;53.486;10.196;2023-05-19T01:43:12;102887.38;;;5.87;100.00
71666;BME280;59503;53.486;10.196;2023-05-19T01:45:38;102897.88;;;5.89;100.00
71666;BME280;59503;53.486;10.196;2023-05-19T01:48:05;102893.84;;;5.86;100.00
71666;BME280;59503;53.486;10.196;2023-05-19T01:50:31;102901.41;;;5.89;100.00
71666;BME280;59503;53.486;10.196;2023-05-19T01:52:56;102891.69;;;5.83;100.00
71666;BME280;59503;53.486;10.196;2023-05-19T01:55:22;102900.59;;;5.89;100.00
71666;BME280;59503;53.486;10.196;2023-05-19T01:58:05;102903.56;;;5.87;100.00
71666;BME280;59503;53.486;10.196;2023-05-19T02:06:45;102898.16;;;5.87;100.00
71666;BME280;59503;53.486;10.196;2023-05-19T02:12:00;102903.53;;;5.92;100.00
71666;BME280;59503;53.486;10.196;2023-05-19T02:14:49;102896.50;;;5.96;100.00
71666;BME280;59503;53.486;10.196;2023-05-19T02:17:17;102897.31;;;5.97;100.00
71666;BME280;59503;53.486;10.196;2023-05-19T02:19:45;102903.53;;;5.97;100.00
71666;BME280;59503;53.486;10.196;2023-05-19T02:22:10;102904.59;;;5.96;100.00
71666;BME280;59503;53.486;10.196;2023-05-19T02:24:35;102901.59;;;6.03;100.00
71666;BME280;59503;53.486;10.196;2023-05-19T02:27:02;102887.28;;;6.02;100.00
71666;BME280;59503;53.486;10.196;2023-05-19T02:29:27;102894.00;;;6.05;100.00
71666;BME280;59503;53.486;10.196;2023-05-19T02:31:53;102893.22;;;6.04;100.00
71666;BME280;59503;53.486;10.196;2023-05-19T02:34:18;102884.31;;;6.04;100.00
71666;BME280;59503;53.486;10.196;2023-05-19T02:36:44;102887.81;;;6.04;100.00
71666;BME280;59503;53.486;10.196;2023-05-19T02:39:10;102879.69;;;6.09;100.00
71666;BME280;59503;53.486;10.196;2023-05-19T02:41:39;102883.41;;;6.18;100.00
71666;BME280;59503;53.486;10.196;2023-05-19T02:44:04;102876.13;;;6.19;100.00
71666;BME280;59503;53.486;10.196;2023-05-19T02:46:30;102878.53;;;6.20;100.00
71666;BME280;59503;53.486;10.196;2023-05-19T02:48:55;102882.84;;;6.26;100.00
71666;BME280;59503;53.486;10.196;2023-05-19T02:51:20;102887.31;;;6.41;100.00
71666;BME280;59503;53.486;10.196;2023-05-19T02:53:46;102878.16;;;6.37;100.00
71666;BME280;59503;53.486;10.196;2023-05-19T02:56:11;102883.34;;;6.28;100.00
71666;BME280;59503;53.486;10.196;2023-05-19T02:58:37;102868.59;;;6.16;100.00
71666;BME280;59503;53.486;10.196;2023-05-19T03:01:02;102878.53;;;6.20;100.00
71666;BME280;59503;53.486;10.196;2023-05-19T03:03:28;102875.31;;;6.18;100.00
71666;BME280;59503;53.486;10.196;2023-05-19T03:05:53;102871.22;;;6.26;100.00
71666;BME280;59503;53.486;10.196;2023-05-19T03:08:19;102870.13;;;6.27;100.00
71666;BME280;59503;53.486;10.196;2023-05-19T03:10:47;102867.38;;;6.32;100.00
71666;BME280;59503;53.486;10.196;2023-05-19T03:13:13;102859.56;;;6.30;100.00
71666;BME280;59503;53.486;10.196;2023-05-19T03:15:38;102867.38;;;6.32;100.00
71666;BME280;59503;53.486;10.196;2023-05-19T03:18:04;102875.56;;;6.22;100.00
71666;BME280;59503;53.486;10.196;2023-05-19T03:20:30;102865.59;;;6.17;100.00
71666;BME280;59503;53.486;10.196;2023-05-19T03:22:56;102869.38;;;6.21;100.00
71666;BME280;59503;53.486;10.196;2023-05-19T03:25:22;102862.91;;;6.17;100.00
71666;BME280;59503;53.486;10.196;2023-05-19T03:27:47;102867.81;;;6.10;100.00
71666;BME280;59503;53.486;10.196;2023-05-19T03:30:13;102866.91;;;6.20;100.00
71666;BME280;59503;53.486;10.196;2023-05-19T03:32:38;102869.94;;;6.13;100.00
71666;BME280;59503;53.486;10.196;2023-05-19T03:35:04;102871.84;;;6.13;100.00
71666;BME280;59503;53.486;10.196;2023-05-19T03:37:30;102868.34;;;6.12;100.00
71666;BME280;59503;53.486;10.196;2023-05-19T03:39:57;102869.16;;;6.13;100.00
71666;BME280;59503;53.486;10.196;2023-05-19T03:42:23;102869.66;;;6.15;100.00
71666;BME280;59503;53.486;10.196;2023-05-19T03:44:48;102871.25;;;6.21;100.00
71666;BME280;59503;53.486;10.196;2023-05-19T03:47:14;102869.41;;;6.16;100.00
71666;BME280;59503;53.486;10.196;2023-05-19T03:49:40;102870.47;;;6.15;100.00
71666;BME280;59503;53.486;10.196;2023-05-19T03:52:05;102876.41;;;6.17;100.00
71666;BME280;59503;53.486;10.196;2023-05-19T03:54:31;102871.84;;;6.13;100.00
71666;BME280;59503;53.486;10.196;2023-05-19T03:56:57;102875.59;;;6.17;100.00
71666;BME280;59503;53.486;10.196;2023-05-19T03:59:22;102882.91;;;6.16;100.00
71666;BME280;59503;53.486;10.196;2023-05-19T04:01:48;102875.31;;;6.18;100.00
71666;BME280;59503;53.486;10.196;2023-05-19T04:04:14;102876.13;;;6.19;100.00
71666;BME280;59503;53.486;10.196;2023-05-19T04:06:40;102881.00;;;6.17;100.00
71666;BME280;59503;53.486;10.196;2023-05-19T04:09:14;102885.03;;;6.19;100.00
71666;BME280;59503;53.486;10.196;2023-05-19T04:11:41;102878.00;;;6.18;100.00
71666;BME280;59503;53.486;10.196;2023-05-19T04:14:07;102890.31;;;6.40;100.00
71666;BME280;59503;53.486;10.196;2023-05-19T04:16:33;102880.03;;;6.42;100.00
71666;BME280;59503;53.486;10.196;2023-05-19T04:18:59;102886.41;;;6.51;100.00
71666;BME280;59503;53.486;10.196;2023-05-19T04:21:25;102885.84;;;6.54;100.00
71666;BME280;59503;53.486;10.196;2023-05-19T04:23:50;102880.44;;;6.54;100.00
71666;BME280;59503;53.486;10.196;2023-05-19T04:26:16;102879.34;;;6.60;100.00
71666;BME280;59503;53.486;10.196;2023-05-19T04:28:42;102896.00;;;6.72;100.00
71666;BME280;59503;53.486;10.196;2023-05-19T04:31:11;102901.84;;;6.79;100.00
71666;BME280;59503;53.486;10.196;2023-05-19T04:33:39;102898.00;;;6.90;100.00
71666;BME280;59503;53.486;10.196;2023-05-19T04:36:08;102892.25;;;6.96;100.00
71666;BME280;59503;53.486;10.196;2023-05-19T04:38:38;102898.47;;;6.97;100.00
71666;BME280;59503;53.486;10.196;2023-05-19T04:41:06;102900.50;;;7.10;100.00
71666;BME280;59503;53.486;10.196;2023-05-19T04:43:36;102897.56;;;7.06;100.00
71666;BME280;59503;53.486;10.196;2023-05-19T04:46:06;102893.59;;;7.22;100.00
71666;BME280;59503;53.486;10.196;2023-05-19T04:48:32;102906.47;;;7.35;100.00
71666;BME280;59503;53.486;10.196;2023-05-19T04:50:58;102900.66;;;7.47;100.00
71666;BME280;59503;53.486;10.196;2023-05-19T04:53:27;102894.66;;;7.50;100.00
71666;BME280;59503;53.486;10.196;2023-05-19T04:55:52;102897.25;;;7.60;100.00
71666;BME280;59503;53.486;10.196;2023-05-19T04:58:18;102902.94;;;7.58;100.00
71666;BME280;59503;53.486;10.196;2023-05-19T05:00:44;102897.53;;;7.58;100.00
71666;BME280;59503;53.486;10.196;2023-05-19T05:03:09;102893.97;;;7.63;100.00
71666;BME280;59503;53.486;10.196;2023-05-19T05:05:36;102908.47;;;7.72;100.00
71666;BME280;59503;53.486;10.196;2023-05-19T05:08:02;102905.69;;;7.77;100.00
71666;BME280;59503;53.486;10.196;2023-05-19T05:10:27;102897.97;;;7.89;100.00
71666;BME280;59503;53.486;10.196;2023-05-19T05:12:53;102906.47;;;8.01;100.00
71666;BME280;59503;53.486;10.196;2023-05-19T05:15:19;102901.94;;;8.15;100.00
71666;BME280;59503;53.486;10.196;2023-05-19T05:17:45;102895.72;;;8.33;100.00
71666;BME280;59503;53.486;10.196;2023-05-19T05:20:11;102895.41;;;8.53;100.00
71666;BME280;59503;53.486;10.196;2023-05-19T05:22:37;102897.63;;;8.70;100.00
71666;BME280;59503;53.486;10.196;2023-05-19T05:25:03;102897.56;;;8.89;100.00
71666;BME280;59503;53.486;10.196;2023-05-19T05:27:30;102904.63;;;9.03;100.00
71666;BME280;59503;53.486;10.196;2023-05-19T05:29:55;102897.22;;;9.09;100.00
71666;BME280;59503;53.486;10.196;2023-05-19T05:32:21;102910.00;;;9.35;99.70
71666;BME280;59503;53.486;10.196;2023-05-19T05:34:47;102903.56;;;9.45;98.90
71666;BME280;59503;53.486;10.196;2023-05-19T05:37:12;102903.56;;;9.72;96.31
71666;BME280;59503;53.486;10.196;2023-05-19T05:39:38;102904.94;;;9.83;95.34
71666;BME280;59503;53.486;10.196;2023-05-19T05:42:03;102899.50;;;9.83;95.12
71666;BME280;59503;53.486;10.196;2023-05-19T05:44:29;102904.50;;;10.03;93.51
71666;BME280;59503;53.486;10.196;2023-05-19T05:46:55;102899.28;;;10.06;94.31
71666;BME280;59503;53.486;10.196;2023-05-19T05:49:20;102901.72;;;10.08;93.51
71666;BME280;59503;53.486;10.196;2023-05-19T05:51:46;102893.59;;;10.30;92.38
71666;BME280;59503;53.486;10.196;2023-05-19T05:54:12;102902.16;;;10.59;90.27
71666;BME280;59503;53.486;10.196;2023-05-19T05:56:37;102907.09;;;11.01;87.63
71666;BME280;59503;53.486;10.196;2023-05-19T05:59:03;102902.94;;;11.43;83.90
71666;BME280;59503;53.486;10.196;2023-05-19T06:01:29;102911.41;;;11.64;81.60
71666;BME280;59503;53.486;10.196;2023-05-19T06:03:55;102915.16;;;11.93;81.13
71666;BME280;59503;53.486;10.196;2023-05-19T06:06:21;102905.88;;;12.37;77.32
71666;BME280;59503;53.486;10.196;2023-05-19T06:08:46;102898.84;;;12.62;74.87
71666;BME280;59503;53.486;10.196;2023-05-19T06:11:12;102910.34;;;12.84;73.48
71666;BME280;59503;53.486;10.196;2023-05-19T06:13:38;102919.00;;;13.03;72.36
71666;BME280;59503;53.486;10.196;2023-05-19T06:16:05;102905.63;;;13.19;71.81
71666;BME280;59503;53.486;10.196;2023-05-19T06:18:31;102914.72;;;13.40;70.87
71666;BME280;59503;53.486;10.196;2023-05-19T06:20:56;102913.75;;;13.73;68.71
71666;BME280;59503;53.486;10.196;2023-05-19T06:23:22;102913.53;;;14.08;65.76
71666;BME280;59503;53.486;10.196;2023-05-19T06:25:48;102912.59;;;14.04;66.41
71666;BME280;59503;53.486;10.196;2023-05-19T06:28:13;102913.34;;;14.13;63.15
71666;BME280;59503;53.486;10.196;2023-05-19T06:30:39;102912.56;;;13.83;65.80
71666;BME280;59503;53.486;10.196;2023-05-19T06:33:04;102915.56;;;13.61;63.00
71666;BME280;59503;53.486;10.196;2023-05-19T06:35:30;102916.44;;;13.44;63.40
71666;BME280;59503;53.486;10.196;2023-05-19T06:37:55;102910.25;;;13.64;62.05
71666;BME280;59503;53.486;10.196;2023-05-19T06:40:21;102910.59;;;14.13;60.49
71666;BME280;59503;53.486;10.196;2023-05-19T06:42:47;102911.16;;;14.27;59.05
71666;BME280;59503;53.486;10.196;2023-05-19T06:45:13;102905.69;;;14.47;58.56
71666;BME280;59503;53.486;10.196;2023-05-19T06:47:38;102908.59;;;14.22;59.87
71666;BME280;59503;53.486;10.196;2023-05-19T06:50:07;102907.81;;;14.42;58.67
71666;BME280;59503;53.486;10.196;2023-05-19T06:52:33;102906.75;;;14.87;56.43
71666;BME280;59503;53.486;10.196;2023-05-19T06:54:58;102910.03;;;14.81;57.36
71666;BME280;59503;53.486;10.196;2023-05-19T06:57:24;102906.34;;;14.65;58.70
71666;BME280;59503;53.486;10.196;2023-05-19T06:59:49;102899.75;;;14.45;57.92
71666;BME280;59503;53.486;10.196;2023-05-19T07:02:15;102903.44;;;14.29;59.77
71666;BME280;59503;53.486;10.196;2023-05-19T07:04:40;102900.28;;;14.39;59.58
71666;BME280;59503;53.486;10.196;2023-05-19T07:07:07;102904.84;;;14.67;58.67
71666;BME280;59503;53.486;10.196;2023-05-19T07:09:32;102906.69;;;14.75;57.80
71666;BME280;59503;53.486;10.196;2023-05-19T07:15:38;102908.34;;;14.56;57.72
71666;BME280;59503;53.486;10.196;2023-05-19T07:18:03;102904.41;;;14.45;57.78
71666;BME280;59503;53.486;10.196;2023-05-19T07:20:28;102907.34;;;14.60;57.42
71666;BME280;59503;53.486;10.196;2023-05-19T07:22:54;102900.88;;;14.77;57.33
71666;BME280;59503;53.486;10.196;2023-05-19T07:25:19;102908.50;;;15.04;56.96
71666;BME280;59503;53.486;10.196;2023-05-19T07:27:44;102902.47;;;15.23;57.33
71666;BME280;59503;53.486;10.196;2023-05-19T07:30:10;102907.84;;;15.19;56.82
71666;BME280;59503;53.486;10.196;2023-05-19T07:32:36;102909.13;;;15.22;56.81
71666;BME280;59503;53.486;10.196;2023-05-19T07:35:02;102900.56;;;15.35;56.13
71666;BME280;59503;53.486;10.196;2023-05-19T07:37:27;102904.69;;;15.41;55.92
71666;BME280;59503;53.486;10.196;2023-05-19T07:39:53;102910.44;;;15.60;54.29
71666;BME280;59503;53.486;10.196;2023-05-19T07:42:18;102910.19;;;15.65;54.67
71666;BME280;59503;53.486;10.196;2023-05-19T07:44:43;102907.66;;;15.84;53.90
71666;BME280;59503;53.486;10.196;2023-05-19T07:47:09;102907.78;;;15.88;52.78
71666;BME280;59503;53.486;10.196;2023-05-19T07:49:34;102903.56;;;15.78;52.31
71666;BME280;59503;53.486;10.196;2023-05-19T07:51:59;102903.06;;;16.12;52.02
71666;BME280;59503;53.486;10.196;2023-05-19T07:54:25;102907.41;;;16.53;51.72
71666;BME280;59503;53.486;10.196;2023-05-19T07:56:50;102891.19;;;16.91;50.44
71666;BME280;59503;53.486;10.196;2023-05-19T07:59:16;102902.47;;;17.17;49.23
71666;BME280;59503;53.486;10.196;2023-05-19T08:01:41;102896.81;;;17.42;47.47
71666;BME280;59503;53.486;10.196;2023-05-19T08:04:06;102899.41;;;17.66;47.27
71666;BME280;59503;53.486;10.196;2023-05-19T08:06:32;102889.50;;;17.80;46.82
71666;BME280;59503;53.486;10.196;2023-05-19T08:08:57;102888.03;;;17.67;47.18
71666;BME280;59503;53.486;10.196;2023-05-19T08:11:23;102898.84;;;18.10;46.05
71666;BME280;59503;53.486;10.196;2023-05-19T08:13:48;102888.59;;;18.45;44.96
71666;BME280;59503;53.486;10.196;2023-05-19T08:16:17;102892.53;;;18.67;43.79
71666;BME280;59503;53.486;10.196;2023-05-19T08:18:42;102889.03;;;18.47;44.53
71666;BME280;59503;53.486;10.196;2023-05-19T08:21:07;102883.63;;;18.74;43.43
71666;BME280;59503;53.486;10.196;2023-05-19T08:23:33;102888.97;;;18.86;43.53
71666;BME280;59503;53.486;10.196;2023-05-19T08:25:59;102890.44;;;19.02;42.95
71666;BME280;59503;53.486;10.196;2023-05-19T08:28:24;102889.03;;;19.83;40.86
71666;BME280;59503;53.486;10.196;2023-05-19T08:30:50;102891.63;;;19.99;41.59
71666;BME280;59503;53.486;10.196;2023-05-19T08:33:17;102888.94;;;19.50;40.96
71666;BME280;59503;53.486;10.196;2023-05-19T08:35:44;102888.59;;;19.55;41.61
71666;BME280;59503;53.486;10.196;2023-05-19T08:38:10;102888.25;;;19.34;40.99
71666;BME280;59503;53.486;10.196;2023-05-19T08:40:36;102889.88;;;19.35;40.75
71666;BME280;59503;53.486;10.196;2023-05-19T08:43:02;102873.53;;;19.49;40.78
71666;BME280;59503;53.486;10.196;2023-05-19T08:45:27;102879.06;;;19.75;40.08
71666;BME280;59503;53.486;10.196;2023-05-19T08:47:54;102872.22;;;20.21;39.40
71666;BME280;59503;53.486;10.196;2023-05-19T08:50:22;102877.50;;;20.66;39.19
71666;BME280;59503;53.486;10.196;2023-05-19T08:52:55;102868.53;;;20.43;40.11
71666;BME280;59503;53.486;10.196;2023-05-19T08:55:31;102877.06;;;20.31;39.75
71666;BME280;59503;53.486;10.196;2023-05-19T08:58:00;102871.25;;;20.73;38.78
71666;BME280;59503;53.486;10.196;2023-05-19T09:00:26;102862.72;;;20.52;39.78
71666;BME280;59503;53.486;10.196;2023-05-19T09:02:52;102858.81;;;20.93;39.20
71666;BME280;59503;53.486;10.196;2023-05-19T09:05:18;102852.66;;;21.14;38.61
71666;BME280;59503;53.486;10.196;2023-05-19T09:07:44;102855.63;;;21.35;37.55
71666;BME280;59503;53.486;10.196;2023-05-19T09:10:11;102856.84;;;21.41;36.76
71666;BME280;59503;53.486;10.196;2023-05-19T09:12:42;102849.19;;;21.78;35.50
71666;BME280;59503;53.486;10.196;2023-05-19T09:15:10;102859.41;;;21.67;36.32
71666;BME280;59503;53.486;10.196;2023-05-19T09:17:36;102847.22;;;21.24;37.12
71666;BME280;59503;53.486;10.196;2023-05-19T09:20:02;102847.84;;;21.04;37.78
71666;BME280;59503;53.486;10.196;2023-05-19T09:22:29;102853.59;;;20.84;37.40
71666;BME280;59503;53.486;10.196;2023-05-19T09:24:55;102850.34;;;21.19;36.38
71666;BME280;59503;53.486;10.196;2023-05-19T09:27:21;102862.34;;;21.37;35.79
71666;BME280;59503;53.486;10.196;2023-05-19T09:29:48;102849.69;;;21.36;35.43
71666;BME280;59503;53.486;10.196;2023-05-19T09:32:23;102849.69;;;21.94;35.61
71666;BME280;59503;53.486;10.196;2023-05-19T09:34:49;102851.59;;;21.25;36.33
71666;BME280;59503;53.486;10.196;2023-05-19T09:37:15;102844.78;;;20.75;37.27
71666;BME280;59503;53.486;10.196;2023-05-19T09:39:40;102850.78;;;20.81;36.66
71666;BME280;59503;53.486;10.196;2023-05-19T09:42:05;102832.78;;;20.98;36.04
71666;BME280;59503;53.486;10.196;2023-05-19T09:44:33;102847.47;;;20.68;37.40
71666;BME280;59503;53.486;10.196;2023-05-19T09:46:59;102835.09;;;20.95;36.16
71666;BME280;59503;53.486;10.196;2023-05-19T09:49:26;102839.06;;;20.54;37.52
71666;BME280;59503;53.486;10.196;2023-05-19T09:52:00;102829.56;;;20.52;38.06
71666;BME280;59503;53.486;10.196;2023-05-19T09:54:26;102829.56;;;20.95;37.69
71666;BME280;59503;53.486;10.196;2023-05-19T09:59:23;102828.84;;;21.53;35.81
71666;BME280;59503;53.486;10.196;2023-05-19T10:01:51;102826.72;;;21.25;36.44
71666;BME280;59503;53.486;10.196;2023-05-19T10:04:17;102829.81;;;21.17;36.30
71666;BME280;59503;53.486;10.196;2023-05-19T10:06:43;102818.63;;;21.03;36.06
71666;BME280;59503;53.486;10.196;2023-05-19T10:09:09;102821.00;;;20.27;37.14
71666;BME280;59503;53.486;10.196;2023-05-19T10:11:34;102825.59;;;20.49;37.42
71666;BME280;59503;53.486;10.196;2023-05-19T10:14:00;102816.69;;;20.70;36.99
71666;BME280;59503;53.486;10.196;2023-05-19T10:16:26;102807.13;;;21.01;37.60
71666;BME280;59503;53.486;10.196;2023-05-19T10:18:54;102809.25;;;21.18;36.54
71666;BME280;59503;53.486;10.196;2023-05-19T10:21:20;102798.75;;;20.93;36.29
71666;BME280;59503;53.486;10.196;2023-05-19T10:23:45;102792.78;;;20.44;37.00
71666;BME280;59503;53.486;10.196;2023-05-19T10:26:12;102794.19;;;20.28;38.84
71666;BME280;59503;53.486;10.196;2023-05-19T10:28:39;102783.81;;;20.21;38.26
71666;BME280;59503;53.486;10.196;2023-05-19T10:31:10;102783.66;;;20.40;38.72
71666;BME280;59503;53.486;10.196;2023-05-19T10:33:44;102791.19;;;20.10;37.64
71666;BME280;59503;53.486;10.196;2023-05-19T10:36:43;102782.59;;;20.15;37.75
71666;BME280;59503;53.486;10.196;2023-05-19T10:39:17;102778.28;;;20.18;37.40
71666;BME280;59503;53.486;10.196;2023-05-19T10:41:52;102783.22;;;20.05;38.16
71666;BME280;59503;53.486;10.196;2023-05-19T10:47:14;102774.00;;;19.91;37.89
71666;BME280;59503;53.486;10.196;2023-05-19T10:49:46;102768.81;;;19.86;38.81
71666;BME280;59503;53.486;10.196;2023-05-19T10:52:22;102779.03;;;19.85;37.47
71666;BME280;59503;53.486;10.196;2023-05-19T10:54:49;102769.56;;;19.86;36.40
71666;BME280;59503;53.486;10.196;2023-05-19T10:57:16;102775.38;;;20.07;37.04
71666;BME280;59503;53.486;10.196;2023-05-19T10:59:41;102778.63;;;20.16;36.83
71666;BME280;59503;53.486;10.196;2023-05-19T11:02:09;102767.41;;;20.35;37.08
71666;BME280;59503;53.486;10.196;2023-05-19T11:04:39;102767.69;;;20.63;35.82
71666;BME280;59503;53.486;10.196;2023-05-19T11:07:15;102766.94;;;20.66;36.02
71666;BME280;59503;53.486;10.196;2023-05-19T11:09:41;102773.41;;;20.84;35.92
71666;BME280;59503;53.486;10.196;2023-05-19T11:12:07;102763.03;;;20.71;35.28
71666;BME280;59503;53.486;10.196;2023-05-19T11:14:34;102769.69;;;21.14;34.82
71666;BME280;59503;53.486;10.196;2023-05-19T11:17:00;102771.59;;;21.67;34.89
71666;BME280;59503;53.486;10.196;2023-05-19T11:19:33;102767.75;;;21.79;34.29
71666;BME280;59503;53.486;10.196;2023-05-19T11:22:12;102764.41;;;21.49;32.62
71666;BME280;59503;53.486;10.196;2023-05-19T11:27:33;102765.00;;;19.97;36.73
71666;BME280;59503;53.486;10.196;2023-05-19T11:32:32;102754.81;;;20.85;34.04
71666;BME280;59503;53.486;10.196;2023-05-19T11:34:58;102754.94;;;21.57;33.98
71666;BME280;59503;53.486;10.196;2023-05-19T11:37:24;102736.19;;;22.11;33.42
71666;BME280;59503;53.486;10.196;2023-05-19T11:39:50;102739.44;;;22.70;32.27
71666;BME280;59503;53.486;10.196;2023-05-19T11:42:16;102748.91;;;23.18;30.81
71666;BME280;59503;53.486;10.196;2023-05-19T11:44:43;102738.63;;;23.08;29.90
71666;BME280;59503;53.486;10.196;2023-05-19T11:47:11;102738.47;;;21.85;32.73
71666;BME280;59503;53.486;10.196;2023-05-19T11:49:36;102742.88;;;21.21;32.50
71666;BME280;59503;53.486;10.196;2023-05-19T11:52:03;102725.03;;;20.61;33.71
71666;BME280;59503;53.486;10.196;2023-05-19T11:54:30;102733.97;;;21.56;32.69
71666;BME280;59503;53.486;10.196;2023-05-19T11:56:56;102730.69;;;22.26;32.37
71666;BME280;59503;53.486;10.196;2023-05-19T11:59:35;102730.69;;;22.43;31.97
71666;BME280;59503;53.486;10.196;2023-05-19T12:02:15;102737.06;;;22.68;31.78
71666;BME280;59503;53.486;10.196;2023-05-19T12:04:41;102734.25;;;23.17;29.04
71666;BME280;59503;53.486;10.196;2023-05-19T12:07:06;102737.75;;;23.53;27.14
71666;BME280;59503;53.486;10.196;2023-05-19T12:09:32;102742.31;;;23.95;27.18
71666;BME280;59503;53.486;10.196;2023-05-19T12:11:57;102735.84;;;23.11;29.11
71666;BME280;59503;53.486;10.196;2023-05-19T12:14:25;102729.94;;;22.74;30.59
71666;BME280;59503;53.486;10.196;2023-05-19T12:16:50;102729.16;;;22.84;30.75
71666;BME280;59503;53.486;10.196;2023-05-19T12:19:16;102725.56;;;22.73;31.07
71666;BME280;59503;53.486;10.196;2023-05-19T12:21:41;102726.72;;;23.21;30.77
71666;BME280;59503;53.486;10.196;2023-05-19T12:24:07;102737.44;;;22.42;30.88
71666;BME280;59503;53.486;10.196;2023-05-19T12:26:35;102725.91;;;22.33;31.09
71666;BME280;59503;53.486;10.196;2023-05-19T12:29:03;102719.81;;;21.75;32.79
71666;BME280;59503;53.486;10.196;2023-05-19T12:31:29;102716.34;;;21.92;32.81
71666;BME280;59503;53.486;10.196;2023-05-19T12:33:55;102714.66;;;21.66;33.55
71666;BME280;59503;53.486;10.196;2023-05-19T12:36:22;102712.72;;;21.77;33.14
71666;BME280;59503;53.486;10.196;2023-05-19T12:38:52;102712.00;;;22.01;33.09
71666;BME280;59503;53.486;10.196;2023-05-19T12:41:18;102712.09;;;22.79;32.39
71666;BME280;59503;53.486;10.196;2023-05-19T12:43:43;102716.84;;;22.99;31.02
71666;BME280;59503;53.486;10.196;2023-05-19T12:46:13;102712.50;;;22.95;31.57
71666;BME280;59503;53.486;10.196;2023-05-19T12:48:44;102713.22;;;23.30;30.54
71666;BME280;59503;53.486;10.196;2023-05-19T12:51:14;102707.75;;;22.85;32.18
71666;BME280;59503;53.486;10.196;2023-05-19T12:53:40;102706.16;;;22.91;31.00
71666;BME280;59503;53.486;10.196;2023-05-19T12:56:15;102695.44;;;22.40;31.64
71666;BME280;59503;53.486;10.196;2023-05-19T12:58:41;102701.41;;;22.46;30.69
71666;BME280;59503;53.486;10.196;2023-05-19T13:01:14;102706.94;;;22.35;31.02
71666;BME280;59503;53.486;10.196;2023-05-19T13:03:40;102709.09;;;21.63;32.70
71666;BME280;59503;53.486;10.196;2023-05-19T13:06:06;102700.00;;;21.59;33.43
71666;BME280;59503;53.486;10.196;2023-05-19T13:08:31;102701.88;;;21.41;34.41
71666;BME280;59503;53.486;10.196;2023-05-19T13:10:57;102702.31;;;20.88;35.92